createdAt,value
2017-08-08T00:00:23.723Z,16.1
2017-08-08T00:01:25.420Z,16.1
2017-08-08T00:03:42.997Z,16.0
2017-08-08T00:04:45.734Z,16.0
2017-08-08T00:05:47.482Z,16.0
2017-08-08T00:06:50.718Z,16.0
2017-08-08T00:07:52.389Z,16.0
2017-08-08T00:08:54.488Z,15.9
2017-08-08T00:09:56.198Z,16.0
2017-08-08T00:10:57.937Z,16.0
2017-08-08T00:11:59.673Z,16.1
2017-08-08T00:13:02.522Z,16.1
2017-08-08T00:14:04.254Z,16.0
2017-08-08T00:15:06.103Z,15.9
2017-08-08T00:16:08.231Z,15.9
2017-08-08T00:17:09.987Z,16.0
2017-08-08T00:18:11.696Z,16.0
2017-08-08T00:19:13.541Z,16.0
2017-08-08T00:20:15.242Z,16.0
2017-08-08T00:21:17.380Z,16.1
2017-08-08T00:22:19.114Z,15.9
2017-08-08T00:23:21.209Z,16.0
2017-08-08T00:24:22.859Z,15.9
2017-08-08T00:25:24.696Z,16.0
2017-08-08T00:26:26.416Z,15.9
2017-08-08T00:27:28.183Z,15.9
2017-08-08T00:28:30.338Z,15.9
2017-08-08T00:29:32.196Z,15.9
2017-08-08T00:30:33.847Z,15.9
2017-08-08T00:31:35.590Z,15.9
2017-08-08T00:32:37.307Z,15.9
2017-08-08T00:33:39.084Z,15.9
2017-08-08T00:34:40.810Z,15.8
2017-08-08T00:35:42.539Z,15.8
2017-08-08T00:36:44.268Z,15.8
2017-08-08T00:37:46.147Z,15.8
2017-08-08T00:38:47.864Z,15.9
2017-08-08T00:39:49.679Z,15.9
2017-08-08T00:40:51.328Z,15.8
2017-08-08T00:41:53.168Z,15.8
2017-08-08T00:42:54.960Z,15.8
2017-08-08T00:43:56.758Z,15.8
2017-08-08T00:44:58.502Z,15.9
2017-08-08T00:46:00.191Z,15.8
2017-08-08T00:47:01.920Z,15.8
2017-08-08T00:48:03.745Z,15.8
2017-08-08T00:49:05.474Z,15.8
2017-08-08T00:50:07.255Z,15.8
2017-08-08T00:51:08.914Z,15.7
2017-08-08T00:52:10.738Z,15.8
2017-08-08T00:53:12.425Z,15.8
2017-08-08T00:54:14.240Z,15.8
2017-08-08T00:55:15.948Z,15.8
2017-08-08T00:56:18.051Z,15.9
2017-08-08T00:57:20.162Z,15.8
2017-08-08T00:58:21.933Z,15.7
2017-08-08T00:59:24.074Z,15.8
2017-08-08T01:00:25.844Z,15.9
2017-08-08T01:01:27.503Z,15.8
2017-08-08T01:02:29.242Z,15.8
2017-08-08T01:03:30.963Z,15.8
2017-08-08T01:04:32.738Z,15.8
2017-08-08T01:05:34.450Z,15.8
2017-08-08T01:06:36.187Z,15.7
2017-08-08T01:07:37.921Z,15.7
2017-08-08T01:08:40.748Z,15.7
2017-08-08T01:09:42.464Z,15.7
2017-08-08T01:10:44.249Z,15.7
2017-08-08T01:11:45.939Z,15.6
2017-08-08T01:12:53.691Z,15.6
2017-08-08T01:13:55.377Z,15.5
2017-08-08T01:14:57.165Z,15.5
2017-08-08T01:15:58.884Z,15.5
2017-08-08T01:17:00.668Z,15.6
2017-08-08T01:18:02.404Z,15.6
2017-08-08T01:19:04.098Z,15.6
2017-08-08T01:20:05.821Z,15.6
2017-08-08T01:21:07.618Z,15.5
2017-08-08T01:22:09.335Z,15.6
2017-08-08T01:23:11.162Z,15.6
2017-08-08T01:24:12.826Z,15.6
2017-08-08T01:25:14.649Z,15.5
2017-08-08T01:26:16.368Z,15.5
2017-08-08T01:27:18.139Z,15.5
2017-08-08T01:28:19.855Z,15.5
2017-08-08T01:29:21.606Z,15.6
2017-08-08T01:30:23.316Z,15.5
2017-08-08T01:31:25.142Z,15.5
2017-08-08T01:32:26.905Z,15.5
2017-08-08T01:33:28.730Z,15.6
2017-08-08T01:34:30.378Z,15.7
2017-08-08T01:35:32.119Z,15.7
2017-08-08T01:36:33.883Z,15.7
2017-08-08T01:37:35.625Z,15.6
2017-08-08T01:38:37.777Z,15.6
2017-08-08T01:39:39.875Z,15.6
2017-08-08T01:40:41.591Z,15.6
2017-08-08T01:41:43.344Z,15.6
2017-08-08T01:42:45.058Z,15.6
2017-08-08T01:43:47.761Z,15.5
2017-08-08T01:44:49.884Z,15.5
2017-08-08T01:45:51.638Z,15.4
2017-08-08T01:46:53.294Z,15.4
2017-08-08T01:47:55.067Z,15.5
2017-08-08T01:48:56.787Z,15.5
2017-08-08T01:49:58.617Z,15.5
2017-08-08T01:51:00.330Z,15.4
2017-08-08T01:52:02.128Z,15.4
2017-08-08T01:53:03.800Z,15.2
2017-08-08T01:54:05.605Z,15.3
2017-08-08T01:55:07.334Z,15.2
2017-08-08T01:56:09.084Z,15.1
2017-08-08T01:57:10.741Z,15.2
2017-08-08T01:58:12.498Z,15.2
2017-08-08T01:59:14.221Z,15.1
2017-08-08T02:00:16.061Z,15.1
2017-08-08T02:01:17.829Z,15.1
2017-08-08T02:02:19.542Z,15.2
2017-08-08T02:03:21.286Z,15.2
2017-08-08T02:04:23.840Z,15.2
2017-08-08T02:05:25.562Z,15.1
2017-08-08T02:06:27.707Z,15.1
2017-08-08T02:07:29.856Z,15.1
2017-08-08T02:08:31.670Z,15.1
2017-08-08T02:09:33.342Z,15.1
2017-08-08T02:10:35.114Z,15.1
2017-08-08T02:11:36.807Z,15.1
2017-08-08T02:12:38.603Z,15.1
2017-08-08T02:13:40.349Z,15.1
2017-08-08T02:14:42.100Z,15.1
2017-08-08T02:15:43.812Z,15.1
2017-08-08T02:16:45.579Z,15.1
2017-08-08T02:17:47.318Z,15.1
2017-08-08T02:18:49.098Z,15.1
2017-08-08T02:19:50.829Z,15.1
2017-08-08T02:20:52.575Z,15.1
2017-08-08T02:21:54.301Z,15.2
2017-08-08T02:22:56.476Z,15.1
2017-08-08T02:23:58.194Z,15.1
2017-08-08T02:25:00.722Z,15.1
2017-08-08T02:26:02.383Z,15.1
2017-08-08T02:27:04.129Z,15.1
2017-08-08T02:28:06.195Z,15.1
2017-08-08T02:29:07.988Z,15.0
2017-08-08T02:30:09.654Z,15.0
2017-08-08T02:31:11.338Z,15.0
2017-08-08T02:32:12.994Z,15.0
2017-08-08T02:33:14.788Z,15.0
2017-08-08T02:34:16.501Z,14.9
2017-08-08T02:35:18.330Z,14.9
2017-08-08T02:36:20.074Z,14.9
2017-08-08T02:37:21.870Z,14.9
2017-08-08T02:38:23.625Z,15.0
2017-08-08T02:39:25.375Z,15.0
2017-08-08T02:40:27.097Z,15.0
2017-08-08T02:41:29.213Z,15.0
2017-08-08T02:42:30.940Z,14.9
2017-08-08T02:43:33.519Z,15.0
2017-08-08T02:44:35.254Z,14.9
2017-08-08T02:45:37.098Z,14.9
2017-08-08T02:46:38.847Z,14.8
2017-08-08T02:47:40.702Z,14.9
2017-08-08T02:48:42.354Z,14.9
2017-08-08T02:49:44.175Z,14.9
2017-08-08T02:50:46.276Z,14.8
2017-08-08T02:51:49.019Z,14.8
2017-08-08T02:52:51.456Z,14.8
2017-08-08T02:53:54.330Z,14.8
2017-08-08T02:54:56.615Z,14.7
2017-08-08T02:55:59.138Z,14.9
2017-08-08T02:57:01.248Z,14.9
2017-08-08T02:58:02.966Z,14.8
2017-08-08T02:59:05.265Z,14.9
2017-08-08T03:00:07.024Z,14.9
2017-08-08T03:01:08.672Z,14.8
2017-08-08T03:02:10.420Z,14.8
2017-08-08T03:03:12.523Z,14.8
2017-08-08T03:04:14.346Z,14.7
2017-08-08T03:05:16.508Z,14.8
2017-08-08T03:06:18.286Z,14.8
2017-08-08T03:07:20.001Z,14.7
2017-08-08T03:08:21.773Z,14.7
2017-08-08T03:09:23.429Z,14.7
2017-08-08T03:10:25.175Z,14.7
2017-08-08T03:11:26.890Z,14.6
2017-08-08T03:12:28.683Z,14.7
2017-08-08T03:13:30.425Z,14.7
2017-08-08T03:14:32.160Z,14.6
2017-08-08T03:15:33.877Z,14.6
2017-08-08T03:16:35.563Z,14.7
2017-08-08T03:17:37.285Z,14.7
2017-08-08T03:18:39.003Z,14.6
2017-08-08T03:19:40.836Z,14.5
2017-08-08T03:20:42.546Z,14.7
2017-08-08T03:21:44.257Z,14.6
2017-08-08T03:22:46.077Z,14.6
2017-08-08T03:23:47.798Z,14.5
2017-08-08T03:24:49.521Z,14.6
2017-08-08T03:25:51.243Z,14.6
2017-08-08T03:26:52.951Z,14.6
2017-08-08T03:27:54.661Z,14.6
2017-08-08T03:28:56.315Z,14.6
2017-08-08T03:29:58.033Z,14.7
2017-08-08T03:30:59.676Z,14.7
2017-08-08T03:32:01.330Z,14.7
2017-08-08T03:33:02.984Z,14.6
2017-08-08T03:34:04.645Z,14.7
2017-08-08T03:35:06.305Z,14.7
2017-08-08T03:36:08.025Z,14.8
2017-08-08T03:37:09.677Z,14.8
2017-08-08T03:38:11.414Z,14.9
2017-08-08T03:39:13.140Z,14.9
2017-08-08T03:40:14.913Z,14.9
2017-08-08T03:41:16.622Z,14.8
2017-08-08T03:42:18.345Z,14.9
2017-08-08T03:43:20.054Z,15.0
2017-08-08T03:44:22.849Z,14.9
2017-08-08T03:45:24.583Z,14.8
2017-08-08T03:46:26.304Z,14.9
2017-08-08T03:47:28.023Z,14.8
2017-08-08T03:48:32.600Z,14.9
2017-08-08T03:49:34.339Z,14.9
2017-08-08T03:50:36.209Z,14.9
2017-08-08T03:51:37.936Z,15.0
2017-08-08T03:52:40.788Z,14.9
2017-08-08T03:53:42.517Z,15.0
2017-08-08T03:54:45.244Z,14.9
2017-08-08T03:55:46.971Z,14.9
2017-08-08T03:56:48.715Z,14.8
2017-08-08T03:57:50.367Z,14.9
2017-08-08T03:58:52.203Z,14.8
2017-08-08T03:59:53.935Z,14.8
2017-08-08T04:01:07.220Z,14.8
2017-08-08T04:02:08.872Z,14.7
2017-08-08T04:03:10.581Z,14.7
2017-08-08T04:04:12.303Z,14.7
2017-08-08T04:05:14.033Z,14.7
2017-08-08T04:06:17.853Z,14.7
2017-08-08T04:07:19.592Z,14.7
2017-08-08T04:08:22.302Z,14.8
2017-08-08T04:09:24.017Z,14.8
2017-08-08T04:10:25.727Z,14.7
2017-08-08T04:11:27.440Z,14.8
2017-08-08T04:12:31.199Z,14.9
2017-08-08T04:13:32.923Z,15.0
2017-08-08T04:14:36.752Z,14.9
2017-08-08T04:15:38.401Z,15.0
2017-08-08T04:16:41.193Z,14.9
2017-08-08T04:17:42.926Z,14.9
2017-08-08T04:18:44.673Z,14.9
2017-08-08T04:19:46.400Z,15.0
2017-08-08T04:20:48.119Z,15.0
2017-08-08T04:21:49.846Z,15.1
2017-08-08T04:22:53.532Z,15.1
2017-08-08T04:23:55.262Z,15.1
2017-08-08T04:24:57.093Z,15.0
2017-08-08T04:25:58.818Z,15.1
2017-08-08T04:27:00.622Z,15.1
2017-08-08T04:28:02.271Z,15.1
2017-08-08T04:29:03.985Z,15.1
2017-08-08T04:30:05.781Z,15.1
2017-08-08T04:31:07.501Z,15.1
2017-08-08T04:32:09.273Z,15.1
2017-08-08T04:33:10.986Z,15.1
2017-08-08T04:34:12.751Z,15.1
2017-08-08T04:35:14.468Z,15.1
2017-08-08T04:36:16.214Z,15.1
2017-08-08T04:37:17.905Z,15.1
2017-08-08T04:38:19.630Z,15.1
2017-08-08T04:39:21.355Z,15.1
2017-08-08T04:40:23.007Z,15.2
2017-08-08T04:41:24.805Z,15.2
2017-08-08T04:42:26.555Z,15.1
2017-08-08T04:43:28.376Z,15.2
2017-08-08T04:44:30.094Z,15.1
2017-08-08T04:45:31.745Z,15.2
2017-08-08T04:46:33.478Z,15.3
2017-08-08T04:47:35.134Z,15.3
2017-08-08T04:48:36.853Z,15.3
2017-08-08T04:49:38.503Z,15.2
2017-08-08T04:50:40.238Z,15.2
2017-08-08T04:51:41.955Z,15.3
2017-08-08T04:52:43.668Z,15.3
2017-08-08T04:53:45.400Z,15.3
2017-08-08T04:54:47.113Z,15.3
2017-08-08T04:55:48.835Z,15.4
2017-08-08T04:56:50.512Z,15.4
2017-08-08T04:57:52.283Z,15.4
2017-08-08T04:58:53.940Z,15.3
2017-08-08T04:59:55.808Z,15.3
2017-08-08T05:00:57.516Z,15.3
2017-08-08T05:01:59.286Z,15.4
2017-08-08T05:03:01.044Z,15.4
2017-08-08T05:04:02.729Z,15.5
2017-08-08T05:05:04.460Z,15.4
2017-08-08T05:06:06.249Z,15.5
2017-08-08T05:07:07.970Z,15.6
2017-08-08T05:08:09.651Z,15.6
2017-08-08T05:09:11.364Z,15.6
2017-08-08T05:10:13.081Z,15.6
2017-08-08T05:11:14.768Z,15.7
2017-08-08T05:12:16.490Z,15.6
2017-08-08T05:13:18.218Z,15.7
2017-08-08T05:14:19.939Z,15.7
2017-08-08T05:15:21.642Z,15.7
2017-08-08T05:16:23.370Z,15.8
2017-08-08T05:17:25.101Z,15.8
2017-08-08T05:18:26.759Z,15.8
2017-08-08T05:19:28.500Z,16.0
2017-08-08T05:20:30.152Z,16.0
2017-08-08T05:21:31.861Z,16.1
2017-08-08T05:22:33.591Z,16.2
2017-08-08T05:23:35.376Z,16.1
2017-08-08T05:24:37.099Z,16.1
2017-08-08T05:25:38.774Z,16.2
2017-08-08T05:26:40.530Z,16.2
2017-08-08T05:27:42.222Z,16.2
2017-08-08T05:28:43.965Z,16.3
2017-08-08T05:29:45.660Z,16.4
2017-08-08T05:30:47.506Z,16.5
2017-08-08T05:31:51.147Z,16.5
2017-08-08T05:32:52.847Z,16.6
2017-08-08T05:33:54.572Z,16.6
2017-08-08T05:34:56.270Z,16.7
2017-08-08T05:35:57.970Z,16.8
2017-08-08T05:36:59.791Z,16.8
2017-08-08T05:38:01.437Z,16.9
2017-08-08T05:39:03.210Z,16.9
2017-08-08T05:40:04.961Z,16.9
2017-08-08T05:41:06.668Z,17.0
2017-08-08T05:42:08.626Z,17.0
2017-08-08T05:43:10.283Z,17.0
2017-08-08T05:44:12.030Z,16.9
2017-08-08T05:45:13.698Z,16.9
2017-08-08T05:46:15.422Z,16.9
2017-08-08T05:47:17.077Z,16.8
2017-08-08T05:48:18.815Z,16.9
2017-08-08T05:49:20.557Z,16.9
2017-08-08T05:50:22.309Z,16.8
2017-08-08T05:51:24.025Z,16.8
2017-08-08T05:52:25.819Z,17.0
2017-08-08T05:53:27.522Z,16.9
2017-08-08T05:54:29.175Z,16.9
2017-08-08T05:55:30.922Z,16.9
2017-08-08T05:56:32.672Z,16.9
2017-08-08T05:57:34.392Z,16.9
2017-08-08T05:58:36.129Z,16.9
2017-08-08T05:59:37.911Z,16.9
2017-08-08T06:00:39.606Z,17.0
2017-08-08T06:01:41.281Z,16.9
2017-08-08T06:02:43.074Z,17.0
2017-08-08T06:03:44.821Z,17.0
2017-08-08T06:04:46.580Z,16.9
2017-08-08T06:05:48.307Z,17.0
2017-08-08T06:06:49.998Z,17.1
2017-08-08T06:07:51.727Z,17.2
2017-08-08T06:08:53.559Z,17.2
2017-08-08T06:09:55.397Z,17.3
2017-08-08T06:10:57.157Z,17.3
2017-08-08T06:11:58.816Z,17.4
2017-08-08T06:13:00.568Z,17.4
2017-08-08T06:14:02.218Z,17.3
2017-08-08T06:15:04.065Z,17.2
2017-08-08T06:16:05.811Z,17.2
2017-08-08T06:17:07.535Z,17.2
2017-08-08T06:18:09.276Z,17.2
2017-08-08T06:19:10.942Z,17.2
2017-08-08T06:20:12.598Z,17.2
2017-08-08T06:21:14.254Z,17.2
2017-08-08T06:22:16.000Z,17.1
2017-08-08T06:23:17.856Z,17.2
2017-08-08T06:24:19.603Z,17.1
2017-08-08T06:25:21.451Z,17.2
2017-08-08T06:26:23.195Z,17.1
2017-08-08T06:27:25.163Z,17.1
2017-08-08T06:28:26.896Z,17.1
2017-08-08T06:29:28.778Z,17.1
2017-08-08T06:30:30.426Z,17.1
2017-08-08T06:31:32.140Z,17.1
2017-08-08T06:32:33.800Z,17.2
2017-08-08T06:33:35.528Z,17.1
2017-08-08T06:34:37.231Z,17.2
2017-08-08T06:35:38.965Z,17.2
2017-08-08T06:36:42.144Z,17.3
2017-08-08T06:37:43.878Z,17.2
2017-08-08T06:38:45.598Z,17.2
2017-08-08T06:39:47.330Z,17.3
2017-08-08T06:40:49.869Z,17.3
2017-08-08T06:41:51.640Z,17.3
2017-08-08T06:42:53.375Z,17.3
2017-08-08T06:43:55.093Z,17.3
2017-08-08T06:44:56.768Z,17.5
2017-08-08T06:45:58.490Z,17.4
2017-08-08T06:47:00.299Z,17.5
2017-08-08T06:48:02.026Z,17.5
2017-08-08T06:49:03.760Z,17.5
2017-08-08T06:50:05.486Z,17.5
2017-08-08T06:51:07.233Z,17.6
2017-08-08T06:52:08.902Z,17.7
2017-08-08T06:53:10.602Z,17.8
2017-08-08T06:54:12.271Z,17.8
2017-08-08T06:55:13.981Z,17.9
2017-08-08T06:56:15.674Z,18.1
2017-08-08T06:57:17.354Z,18.0
2017-08-08T06:58:19.155Z,18.0
2017-08-08T06:59:20.884Z,18.1
2017-08-08T07:00:22.627Z,18.2
2017-08-08T07:01:24.284Z,18.1
2017-08-08T07:02:26.021Z,18.2
2017-08-08T07:03:27.671Z,18.1
2017-08-08T07:04:30.434Z,18.2
2017-08-08T07:05:32.081Z,18.2
2017-08-08T07:06:33.743Z,18.2
2017-08-08T07:07:35.407Z,18.3
2017-08-08T07:08:37.220Z,18.3
2017-08-08T07:09:38.876Z,18.2
2017-08-08T07:10:40.530Z,18.3
2017-08-08T07:11:42.194Z,18.3
2017-08-08T07:12:43.852Z,18.4
2017-08-08T07:13:45.537Z,18.6
2017-08-08T07:14:47.300Z,18.6
2017-08-08T07:15:48.956Z,18.7
2017-08-08T07:16:50.697Z,18.9
2017-08-08T07:17:52.349Z,19.1
2017-08-08T07:18:54.075Z,19.3
2017-08-08T07:19:55.748Z,19.5
2017-08-08T07:20:58.610Z,19.6
2017-08-08T07:22:00.263Z,19.7
2017-08-08T07:23:02.006Z,20.0
2017-08-08T07:24:03.689Z,20.1
2017-08-08T07:25:05.492Z,20.1
2017-08-08T07:26:07.149Z,20.1
2017-08-08T07:27:10.944Z,20.4
2017-08-08T07:28:12.596Z,20.5
2017-08-08T07:29:14.510Z,20.5
2017-08-08T07:30:16.165Z,20.7
2017-08-08T07:31:17.844Z,20.8
2017-08-08T07:32:19.496Z,20.8
2017-08-08T07:33:21.173Z,20.9
2017-08-08T07:34:22.827Z,20.9
2017-08-08T07:35:24.647Z,21.0
2017-08-08T07:36:26.294Z,21.0
2017-08-08T07:37:27.954Z,21.0
2017-08-08T07:38:29.619Z,21.1
2017-08-08T07:39:31.307Z,21.1
2017-08-08T07:40:32.938Z,21.1
2017-08-08T07:41:34.778Z,21.2
2017-08-08T07:42:36.452Z,21.3
2017-08-08T07:43:39.279Z,21.2
2017-08-08T07:44:40.951Z,21.3
2017-08-08T07:45:42.719Z,21.2
2017-08-08T07:46:44.375Z,21.2
2017-08-08T07:47:46.106Z,21.3
2017-08-08T07:48:47.764Z,21.3
2017-08-08T07:49:49.579Z,21.4
2017-08-08T07:50:51.299Z,21.3
2017-08-08T07:51:53.083Z,21.4
2017-08-08T07:52:54.735Z,21.5
2017-08-08T07:53:56.574Z,21.5
2017-08-08T07:54:58.233Z,21.6
2017-08-08T07:56:00.064Z,21.7
2017-08-08T07:57:01.766Z,21.7
2017-08-08T07:58:03.562Z,21.7
2017-08-08T07:59:05.215Z,21.7
2017-08-08T08:00:06.996Z,21.8
2017-08-08T08:01:08.789Z,21.8
2017-08-08T08:02:10.551Z,21.8
2017-08-08T08:03:12.204Z,21.7
2017-08-08T08:04:13.857Z,21.8
2017-08-08T08:05:15.531Z,21.7
2017-08-08T08:06:17.182Z,21.8
2017-08-08T08:07:18.847Z,21.8
2017-08-08T08:08:20.547Z,21.8
2017-08-08T08:09:22.198Z,21.8
2017-08-08T08:10:24.055Z,21.8
2017-08-08T08:11:25.735Z,21.8
2017-08-08T08:12:27.392Z,21.7
2017-08-08T08:13:29.096Z,21.7
2017-08-08T08:14:30.774Z,21.7
2017-08-08T08:15:32.435Z,21.8
2017-08-08T08:16:34.125Z,21.8
2017-08-08T08:17:35.784Z,21.8
2017-08-08T08:18:37.596Z,21.8
2017-08-08T08:19:39.300Z,22.0
2017-08-08T08:20:41.096Z,21.9
2017-08-08T08:21:42.752Z,21.9
2017-08-08T08:22:44.470Z,21.9
2017-08-08T08:23:46.113Z,21.8
2017-08-08T08:24:47.764Z,21.8
2017-08-08T08:25:49.431Z,21.9
2017-08-08T08:26:51.102Z,21.9
2017-08-08T08:27:54.803Z,21.8
2017-08-08T08:28:56.455Z,21.8
2017-08-08T08:29:59.358Z,21.7
2017-08-08T08:31:01.337Z,21.8
2017-08-08T08:32:04.424Z,21.8
2017-08-08T08:33:06.378Z,21.8
2017-08-08T08:34:08.050Z,21.7
2017-08-08T08:35:09.699Z,21.7
2017-08-08T08:36:13.485Z,21.8
2017-08-08T08:37:15.147Z,21.8
2017-08-08T08:38:16.875Z,22.0
2017-08-08T08:39:18.540Z,22.0
2017-08-08T08:40:21.333Z,22.1
2017-08-08T08:41:23.003Z,22.1
2017-08-08T08:42:24.737Z,22.2
2017-08-08T08:43:26.468Z,22.2
2017-08-08T08:44:28.219Z,22.2
2017-08-08T08:45:29.897Z,22.2
2017-08-08T08:46:31.695Z,22.1
2017-08-08T08:47:33.454Z,22.1
2017-08-08T08:48:35.124Z,22.1
2017-08-08T08:49:36.819Z,22.1
2017-08-08T08:50:38.519Z,22.1
2017-08-08T08:51:40.207Z,22.1
2017-08-08T08:52:43.025Z,22.1
2017-08-08T08:53:44.695Z,22.2
2017-08-08T08:54:47.513Z,22.2
2017-08-08T08:55:49.225Z,22.3
2017-08-08T08:56:52.013Z,22.4
2017-08-08T08:57:53.670Z,22.4
2017-08-08T08:58:55.461Z,22.4
2017-08-08T08:59:57.130Z,22.4
2017-08-08T09:00:58.804Z,22.4
2017-08-08T09:02:00.665Z,22.4
2017-08-08T09:03:02.406Z,22.4
2017-08-08T09:04:04.194Z,22.5
2017-08-08T09:05:05.846Z,22.7
2017-08-08T09:06:07.601Z,22.7
2017-08-08T09:07:10.589Z,22.7
2017-08-08T09:08:13.723Z,22.7
2017-08-08T09:09:15.396Z,22.8
2017-08-08T09:10:19.770Z,22.8
2017-08-08T09:11:21.433Z,22.9
2017-08-08T09:12:23.260Z,23.1
2017-08-08T09:13:24.963Z,23.1
2017-08-08T09:14:26.670Z,23.1
2017-08-08T09:15:31.274Z,23.2
2017-08-08T09:16:32.948Z,23.0
2017-08-08T09:17:36.264Z,23.0
2017-08-08T09:18:38.068Z,22.9
2017-08-08T09:19:39.754Z,22.9
2017-08-08T09:20:41.577Z,23.0
2017-08-08T09:21:43.271Z,23.2
2017-08-08T09:22:46.184Z,23.2
2017-08-08T09:23:47.851Z,23.3
2017-08-08T09:24:49.670Z,23.2
2017-08-08T09:25:51.329Z,23.3
2017-08-08T09:26:53.098Z,23.3
2017-08-08T09:27:54.815Z,23.5
2017-08-08T09:28:57.543Z,23.4
2017-08-08T09:29:59.222Z,23.5
2017-08-08T09:31:00.986Z,23.6
2017-08-08T09:32:02.691Z,23.7
2017-08-08T09:33:04.341Z,23.7
2017-08-08T09:34:07.133Z,23.6
2017-08-08T09:35:08.801Z,23.7
2017-08-08T09:36:12.640Z,23.7
2017-08-08T09:37:14.301Z,23.7
2017-08-08T09:38:17.064Z,23.8
2017-08-08T09:39:19.025Z,23.9
2017-08-08T09:40:25.368Z,23.9
2017-08-08T09:41:27.133Z,23.8
2017-08-08T09:42:29.954Z,23.8
2017-08-08T09:43:31.613Z,23.9
2017-08-08T09:44:33.463Z,24.0
2017-08-08T09:45:35.176Z,24.0
2017-08-08T09:46:36.945Z,24.1
2017-08-08T09:47:38.637Z,24.2
2017-08-08T09:48:41.444Z,24.2
2017-08-08T09:49:43.091Z,24.3
2017-08-08T09:50:45.826Z,24.1
2017-08-08T09:51:47.487Z,24.2
2017-08-08T09:52:53.875Z,24.2
2017-08-08T09:53:55.534Z,24.2
2017-08-08T09:54:57.723Z,24.2
2017-08-08T09:55:59.436Z,24.1
2017-08-08T09:57:01.328Z,24.1
2017-08-08T09:58:03.001Z,24.1
2017-08-08T09:59:04.840Z,24.1
2017-08-08T10:00:06.538Z,24.1
2017-08-08T10:01:08.412Z,24.1
2017-08-08T10:02:10.067Z,24.0
2017-08-08T10:03:11.947Z,23.9
2017-08-08T10:04:13.620Z,23.9
2017-08-08T10:05:15.488Z,23.9
2017-08-08T10:06:17.195Z,23.9
2017-08-08T10:07:18.960Z,23.8
2017-08-08T10:08:21.191Z,23.8
2017-08-08T10:09:22.966Z,23.8
2017-08-08T10:10:24.649Z,23.8
2017-08-08T10:11:26.482Z,23.8
2017-08-08T10:12:28.166Z,23.7
2017-08-08T10:13:29.980Z,23.7
2017-08-08T10:14:31.746Z,23.7
2017-08-08T10:15:33.639Z,23.7
2017-08-08T10:16:35.325Z,23.6
2017-08-08T10:17:37.175Z,23.6
2017-08-08T10:18:38.891Z,23.6
2017-08-08T10:19:40.575Z,23.7
2017-08-08T10:20:42.224Z,23.7
2017-08-08T10:21:43.896Z,23.6
2017-08-08T10:22:45.627Z,23.7
2017-08-08T10:23:47.298Z,23.6
2017-08-08T10:24:48.987Z,23.6
2017-08-08T10:25:50.857Z,23.5
2017-08-08T10:26:52.585Z,23.5
2017-08-08T10:27:54.518Z,23.5
2017-08-08T10:28:56.258Z,23.4
2017-08-08T10:29:57.987Z,23.4
2017-08-08T10:30:59.830Z,23.4
2017-08-08T10:32:01.587Z,23.4
2017-08-08T10:33:03.268Z,23.4
2017-08-08T10:34:04.913Z,23.4
2017-08-08T10:35:06.767Z,23.4
2017-08-08T10:36:08.433Z,23.5
2017-08-08T10:37:10.273Z,23.5
2017-08-08T10:38:11.938Z,23.5
2017-08-08T10:39:13.805Z,23.6
2017-08-08T10:40:15.470Z,23.5
2017-08-08T10:41:17.248Z,23.5
2017-08-08T10:42:18.974Z,23.4
2017-08-08T10:43:20.843Z,23.4
2017-08-08T10:44:22.501Z,23.4
2017-08-08T10:45:24.340Z,23.5
2017-08-08T10:46:26.129Z,23.3
2017-08-08T10:47:27.822Z,23.3
2017-08-08T10:48:29.782Z,23.4
2017-08-08T10:49:31.440Z,23.3
2017-08-08T10:50:33.277Z,23.4
2017-08-08T10:51:34.936Z,23.4
2017-08-08T10:52:36.793Z,23.4
2017-08-08T10:53:38.454Z,23.5
2017-08-08T10:54:40.162Z,23.4
2017-08-08T10:55:41.837Z,23.5
2017-08-08T10:56:43.519Z,23.4
2017-08-08T10:57:45.323Z,23.5
2017-08-08T10:58:47.059Z,23.5
2017-08-08T10:59:48.920Z,23.4
2017-08-08T11:00:50.591Z,23.4
2017-08-08T11:01:52.398Z,23.4
2017-08-08T11:02:54.087Z,23.4
2017-08-08T11:03:55.772Z,23.4
2017-08-08T11:04:57.434Z,23.2
2017-08-08T11:05:59.113Z,23.3
2017-08-08T11:07:00.796Z,23.3
2017-08-08T11:08:03.513Z,23.3
2017-08-08T11:09:05.222Z,23.4
2017-08-08T11:10:06.948Z,23.2
2017-08-08T11:11:08.597Z,23.2
2017-08-08T11:12:10.401Z,23.2
2017-08-08T11:13:12.083Z,23.2
2017-08-08T11:14:14.807Z,23.1
2017-08-08T11:15:16.539Z,23.2
2017-08-08T11:16:18.387Z,23.1
2017-08-08T11:17:20.040Z,23.1
2017-08-08T11:18:21.826Z,23.1
2017-08-08T11:19:23.509Z,23.1
2017-08-08T11:20:25.496Z,23.2
2017-08-08T11:21:27.145Z,23.1
2017-08-08T11:22:28.916Z,23.1
2017-08-08T11:23:30.586Z,23.1
2017-08-08T11:24:32.676Z,23.1
2017-08-08T11:25:34.340Z,23.0
2017-08-08T11:26:36.276Z,23.1
2017-08-08T11:27:37.942Z,23.0
2017-08-08T11:28:39.737Z,23.0
2017-08-08T11:29:41.443Z,22.9
2017-08-08T11:30:43.116Z,23.0
2017-08-08T11:31:45.062Z,22.9
2017-08-08T11:32:46.881Z,23.0
2017-08-08T11:33:48.624Z,23.0
2017-08-08T11:34:50.432Z,23.0
2017-08-08T11:35:52.091Z,23.0
2017-08-08T11:36:53.927Z,22.9
2017-08-08T11:37:55.604Z,23.1
2017-08-08T11:38:57.418Z,23.1
2017-08-08T11:39:59.070Z,23.1
2017-08-08T11:41:01.892Z,23.1
2017-08-08T11:42:03.572Z,23.2
2017-08-08T11:43:05.335Z,23.2
2017-08-08T11:44:07.079Z,23.3
2017-08-08T11:45:08.829Z,23.3
2017-08-08T11:46:10.516Z,23.3
2017-08-08T11:47:12.321Z,23.2
2017-08-08T11:48:13.973Z,23.3
2017-08-08T11:49:15.856Z,23.3
2017-08-08T11:50:17.517Z,23.3
2017-08-08T11:51:19.367Z,23.1
2017-08-08T11:52:21.134Z,23.1
2017-08-08T11:53:22.833Z,23.0
2017-08-08T11:54:24.614Z,22.9
2017-08-08T11:55:26.363Z,22.9
2017-08-08T11:56:28.040Z,22.8
2017-08-08T11:57:29.797Z,22.9
2017-08-08T11:58:31.480Z,22.9
2017-08-08T11:59:33.701Z,22.9
2017-08-08T12:00:35.866Z,22.9
2017-08-08T12:01:38.185Z,22.9
2017-08-08T12:02:39.842Z,23.0
2017-08-08T12:03:41.558Z,22.9
2017-08-08T12:04:43.215Z,23.0
2017-08-08T12:05:44.938Z,22.8
2017-08-08T12:06:46.631Z,22.8
2017-08-08T12:07:48.307Z,22.7
2017-08-08T12:08:49.999Z,22.7
2017-08-08T12:09:51.662Z,22.5
2017-08-08T12:10:53.374Z,22.5
2017-08-08T12:11:55.045Z,22.4
2017-08-08T12:12:56.773Z,22.3
2017-08-08T12:13:58.509Z,22.2
2017-08-08T12:15:00.271Z,22.1
2017-08-08T12:16:01.941Z,22.1
2017-08-08T12:17:03.649Z,22.1
2017-08-08T12:18:05.312Z,22.1
2017-08-08T12:19:08.116Z,22.1
2017-08-08T12:20:09.822Z,22.1
2017-08-08T12:21:11.579Z,22.0
2017-08-08T12:22:13.297Z,22.0
2017-08-08T12:23:15.081Z,22.0
2017-08-08T12:24:16.762Z,22.0
2017-08-08T12:25:18.560Z,22.0
2017-08-08T12:26:20.221Z,22.1
2017-08-08T12:27:21.973Z,22.1
2017-08-08T12:28:23.627Z,22.2
2017-08-08T12:29:25.372Z,22.2
2017-08-08T12:30:27.043Z,22.2
2017-08-08T12:31:28.839Z,22.4
2017-08-08T12:32:30.499Z,22.4
2017-08-08T12:33:32.240Z,22.5
2017-08-08T12:34:33.921Z,22.7
2017-08-08T12:35:35.616Z,22.8
2017-08-08T12:36:37.270Z,22.9
2017-08-08T12:37:38.944Z,23.0
2017-08-08T12:38:40.678Z,23.0
2017-08-08T12:39:42.327Z,23.0
2017-08-08T12:40:44.046Z,23.1
2017-08-08T12:41:45.708Z,23.1
2017-08-08T12:42:47.490Z,22.9
2017-08-08T12:43:49.145Z,23.1
2017-08-08T12:44:50.946Z,23.0
2017-08-08T12:45:52.797Z,23.1
2017-08-08T12:46:54.540Z,23.0
2017-08-08T12:47:56.198Z,23.0
2017-08-08T12:48:57.922Z,23.1
2017-08-08T12:49:59.578Z,23.0
2017-08-08T12:51:01.335Z,22.9
2017-08-08T12:52:04.139Z,22.9
2017-08-08T12:53:05.751Z,22.9
2017-08-08T12:54:07.429Z,22.8
2017-08-08T12:55:09.164Z,22.7
2017-08-08T12:56:10.862Z,22.7
2017-08-08T12:57:12.692Z,22.6
2017-08-08T12:58:14.374Z,22.4
2017-08-08T12:59:16.143Z,22.4
2017-08-08T13:00:17.817Z,22.3
2017-08-08T13:01:19.667Z,22.3
2017-08-08T13:02:21.568Z,22.3
2017-08-08T13:03:23.395Z,22.2
2017-08-08T13:04:25.131Z,22.2
2017-08-08T13:05:27.030Z,22.1
2017-08-08T13:06:28.810Z,22.1
2017-08-08T13:07:30.667Z,22.1
2017-08-08T13:08:32.440Z,22.1
2017-08-08T13:09:34.316Z,22.1
2017-08-08T13:10:36.041Z,22.0
2017-08-08T13:11:37.868Z,22.0
2017-08-08T13:12:39.636Z,22.1
2017-08-08T13:13:41.529Z,22.0
2017-08-08T13:14:43.315Z,22.0
2017-08-08T13:15:45.266Z,21.9
2017-08-08T13:16:47.133Z,22.0
2017-08-08T13:17:50.142Z,22.0
2017-08-08T13:18:51.996Z,21.9
2017-08-08T13:19:53.798Z,21.9
2017-08-08T13:20:55.532Z,21.7
2017-08-08T13:21:57.478Z,21.8
2017-08-08T13:22:59.264Z,21.7
2017-08-08T13:24:01.135Z,21.7
2017-08-08T13:25:02.830Z,21.7
2017-08-08T13:26:04.934Z,21.6
2017-08-08T13:27:06.601Z,21.7
2017-08-08T13:28:08.261Z,21.6
2017-08-08T13:29:10.009Z,21.6
2017-08-08T13:30:11.743Z,21.6
2017-08-08T13:31:13.479Z,21.6
2017-08-08T13:32:15.168Z,21.6
2017-08-08T13:33:16.978Z,21.6
2017-08-08T13:34:18.675Z,21.6
2017-08-08T13:35:20.516Z,21.7
2017-08-08T13:36:22.331Z,21.7
2017-08-08T13:37:25.156Z,21.8
2017-08-08T13:38:26.845Z,21.9
2017-08-08T13:39:28.629Z,22.0
2017-08-08T13:40:30.404Z,22.0
2017-08-08T13:41:32.137Z,22.0
2017-08-08T13:42:33.922Z,22.0
2017-08-08T13:43:35.670Z,22.0
2017-08-08T13:44:37.496Z,21.9